Time;durP1;ratioP1;P1;durP2;ratioP2;P2;SDS_P1;SDS_P2;PMS_P1;PMS_P2;Temp;Humidity;BMP_temperature;BMP_pressure;BME280_temperature;BME280_humidity;BME280_pressure;Samples;Min_cycle;Max_cycle;Signal;HPM_P1;HPM_P2
2024/03/05 00:00:11;;;;;;;41.35;25.40;;;10.10;99.90;;;;;;4155237;28;20036;-68
2024/03/05 00:02:12;;;;;;;40.97;24.63;;;10.10;99.90;;;;;;4144469;28;20069;-67
2024/03/05 00:04:13;;;;;;;44.00;26.38;;;10.10;99.90;;;;;;4149709;28;20042;-67
2024/03/05 00:06:13;;;;;;;44.83;26.40;;;10.00;99.90;;;;;;4156693;28;20064;-67
2024/03/05 00:08:14;;;;;;;44.95;26.88;;;10.00;99.90;;;;;;4151660;28;20038;-67
2024/03/05 00:10:15;;;;;;;44.13;26.27;;;10.00;99.90;;;;;;4167527;28;20115;-67
2024/03/05 00:12:15;;;;;;;43.72;26.05;;;10.00;99.90;;;;;;4155825;28;20041;-67
2024/03/05 00:14:16;;;;;;;46.63;26.83;;;10.00;99.90;;;;;;4155094;28;20034;-67
2024/03/05 00:16:17;;;;;;;41.25;23.92;;;10.00;99.90;;;;;;4154709;28;20120;-67
2024/03/05 00:18:17;;;;;;;45.35;25.77;;;10.00;99.90;;;;;;4155022;28;20037;-67
2024/03/05 00:20:18;;;;;;;40.33;24.75;;;10.00;99.90;;;;;;4153185;28;20134;-67
2024/03/05 00:22:19;;;;;;;39.83;23.63;;;10.00;99.90;;;;;;4148483;28;20187;-67
2024/03/05 00:24:20;;;;;;;44.47;26.13;;;9.90;99.90;;;;;;4152624;28;20084;-67
2024/03/05 00:26:23;;;;;;;39.58;23.25;;;9.90;99.90;;;;;;4156155;28;20466;-67
2024/03/05 00:28:24;;;;;;;;;;;9.90;99.90;;;;;;4154744;28;20046;-67
2024/03/05 00:30:25;;;;;;;39.53;23.67;;;9.90;99.90;;;;;;4154379;28;19920;-67
2024/03/05 00:32:25;;;;;;;41.95;24.30;;;9.90;99.90;;;;;;4149593;28;20069;-67
2024/03/05 00:34:26;;;;;;;43.05;24.10;;;9.90;99.90;;;;;;4154404;28;20029;-67
2024/03/05 00:36:27;;;;;;;39.72;23.80;;;9.90;99.90;;;;;;4154159;28;20436;-67
2024/03/05 00:38:28;;;;;;;44.22;24.55;;;9.90;99.90;;;;;;4156868;28;20029;-67
2024/03/05 00:40:29;;;;;;;38.28;23.33;;;9.90;99.90;;;;;;4152839;28;20391;-67
2024/03/05 00:42:30;;;;;;;38.90;23.80;;;9.90;99.90;;;;;;4156337;28;20033;-67
2024/03/05 00:44:31;;;;;;;46.90;26.50;;;9.90;99.90;;;;;;4157717;28;20492;-67
2024/03/05 00:46:31;;;;;;;43.22;25.52;;;9.90;99.90;;;;;;4153939;28;20061;-67
2024/03/05 00:48:33;;;;;;;37.60;23.33;;;9.90;99.90;;;;;;4156575;28;20455;-67
2024/03/05 00:50:34;;;;;;;42.65;25.05;;;9.90;99.90;;;;;;4153509;28;20038;-67
2024/03/05 00:52:35;;;;;;;38.40;23.63;;;9.90;99.90;;;;;;4157688;28;20565;-73
2024/03/05 00:54:36;;;;;;;42.20;25.33;;;9.90;99.90;;;;;;4160025;28;20068;-70
2024/03/05 00:56:37;;;;;;;43.35;25.52;;;9.90;99.90;;;;;;4158395;28;20060;-71
2024/03/05 00:58:37;;;;;;;47.38;26.08;;;9.90;99.90;;;;;;4155246;28;20399;-72
2024/03/05 01:00:38;;;;;;;47.85;27.67;;;9.90;99.90;;;;;;4157130;28;20038;-73
2024/03/05 01:02:44;;;;;;;51.05;28.95;;;9.90;99.90;;;;;;4160306;28;20482;-73
2024/03/05 01:04:45;;;;;;;44.13;27.30;;;9.90;99.90;;;;;;4158738;28;20029;-73
2024/03/05 01:06:45;;;;;;;43.20;25.77;;;9.90;99.90;;;;;;4158209;28;20129;-73
2024/03/05 01:08:46;;;;;;;49.97;28.88;;;9.90;99.90;;;;;;4160188;28;20045;-73
2024/03/05 01:10:47;;;;;;;44.33;26.50;;;9.80;99.90;;;;;;4156156;28;20038;-73
2024/03/05 01:12:48;;;;;;;44.78;26.58;;;9.80;99.90;;;;;;4157708;28;20448;-73
2024/03/05 01:14:49;;;;;;;41.77;25.50;;;9.80;99.90;;;;;;4159190;28;20033;-73
2024/03/05 01:16:50;;;;;;;46.92;26.45;;;9.80;99.90;;;;;;4157220;28;20037;-73
2024/03/05 01:18:50;;;;;;;49.53;28.25;;;9.70;99.90;;;;;;4155371;28;20040;-73
2024/03/05 01:20:51;;;;;;;48.30;28.23;;;9.50;99.90;;;;;;4158519;28;20081;-73
2024/03/05 01:22:51;;;;;;;38.38;23.50;;;9.60;99.90;;;;;;4159792;28;20505;-72
2024/03/05 01:24:52;;;;;;;48.10;27.02;;;9.60;99.90;;;;;;4158160;28;20037;-73
2024/03/05 01:26:53;;;;;;;45.30;27.00;;;9.50;99.90;;;;;;4154276;28;20172;-73
2024/03/05 01:28:55;;;;;;;44.47;26.85;;;9.50;99.90;;;;;;4158741;28;20478;-73
2024/03/05 01:30:55;;;;;;;46.40;25.38;;;9.50;99.90;;;;;;4156333;28;20474;-72
2024/03/05 01:32:57;;;;;;;47.22;26.67;;;9.50;99.90;;;;;;4138228;28;20601;-73
2024/03/05 01:34:57;;;;;;;48.63;28.48;;;9.60;99.90;;;;;;4168392;28;20030;-73
2024/03/05 01:36:58;;;;;;;49.17;28.70;;;9.60;99.90;;;;;;4158799;28;20065;-73
2024/03/05 01:38:58;;;;;;;47.97;28.17;;;9.60;99.90;;;;;;4158845;28;20045;-73
2024/03/05 01:40:59;;;;;;;52.28;29.50;;;9.60;99.90;;;;;;4149765;28;20476;-73
2024/03/05 01:43:00;;;;;;;50.97;28.02;;;9.60;99.90;;;;;;4160158;28;20122;-73
2024/03/05 01:45:00;;;;;;;51.65;29.08;;;9.60;99.90;;;;;;4158159;28;20490;-73
2024/03/05 01:47:02;;;;;;;51.50;29.50;;;9.70;99.90;;;;;;4154120;28;20038;-73
2024/03/05 01:49:03;;;;;;;55.00;30.52;;;9.70;99.90;;;;;;4158763;28;20030;-71
2024/03/05 01:51:05;;;;;;;53.88;30.58;;;9.70;99.90;;;;;;4154490;28;20045;-72
2024/03/05 01:53:10;;;;;;;57.70;30.70;;;9.70;99.90;;;;;;4159115;28;20458;-73
2024/03/05 01:55:14;;;;;;;53.85;29.23;;;9.70;99.90;;;;;;4156566;28;20063;-73
2024/03/05 01:57:15;;;;;;;54.70;29.63;;;9.70;99.90;;;;;;4160064;28;20473;-73
2024/03/05 01:59:18;;;;;;;52.75;29.33;;;9.70;99.90;;;;;;4158644;28;20080;-72
2024/03/05 02:01:18;;;;;;;50.10;28.65;;;9.70;99.90;;;;;;4156341;28;20041;-72
2024/03/05 02:03:20;;;;;;;46.35;26.83;;;9.70;99.90;;;;;;4154239;28;20061;-73
2024/03/05 02:05:20;;;;;;;45.05;25.48;;;9.70;99.90;;;;;;4152659;28;20448;-73
2024/03/05 02:07:23;;;;;;;48.00;26.27;;;9.70;99.90;;;;;;4159500;28;20041;-71
2024/03/05 02:09:24;;;;;;;49.47;26.58;;;9.70;99.90;;;;;;4155545;28;20030;-73
2024/03/05 02:11:26;;;;;;;43.97;25.70;;;9.60;99.90;;;;;;4153595;28;20091;-67
2024/03/05 02:13:27;;;;;;;49.97;26.95;;;9.60;99.90;;;;;;4152575;28;20532;-66
2024/03/05 02:15:27;;;;;;;51.50;28.00;;;9.60;99.90;;;;;;4151436;28;20073;-66
2024/03/05 02:17:28;;;;;;;49.95;28.08;;;9.60;99.90;;;;;;4156022;28;20034;-66
2024/03/05 02:19:28;;;;;;;46.97;26.58;;;9.70;99.90;;;;;;4155452;28;20056;-66
2024/03/05 02:21:29;;;;;;;56.75;29.85;;;9.70;99.90;;;;;;4154603;28;20475;-66
2024/03/05 02:23:31;;;;;;;58.67;30.92;;;9.70;99.90;;;;;;4154189;28;20051;-66
2024/03/05 02:25:31;;;;;;;54.50;29.88;;;9.70;99.90;;;;;;4155951;28;20767;-66
2024/03/05 02:27:33;;;;;;;62.53;33.35;;;9.70;99.90;;;;;;4153014;28;20115;-64
2024/03/05 02:29:38;;;;;;;64.00;32.97;;;9.70;99.90;;;;;;4158771;28;20359;-67
2024/03/05 02:31:39;;;;;;;53.83;30.55;;;9.70;99.90;;;;;;4154216;28;20461;-66
2024/03/05 02:33:46;;;;;;;56.63;30.73;;;9.80;99.90;;;;;;4157427;28;20048;-66
2024/03/05 02:35:48;;;;;;;58.08;31.60;;;9.80;99.90;;;;;;4157146;28;20499;-66
2024/03/05 02:37:49;;;;;;;61.05;31.80;;;9.80;99.90;;;;;;4152568;28;20030;-66
2024/03/05 02:39:50;;;;;;;55.97;31.25;;;9.80;99.90;;;;;;4154313;28;20037;-66
2024/03/05 02:41:50;;;;;;;54.58;30.10;;;9.80;99.90;;;;;;4157374;28;20045;-66
2024/03/05 02:43:51;;;;;;;58.25;32.03;;;9.80;99.90;;;;;;4157960;28;20051;-66
2024/03/05 02:45:52;;;;;;;62.90;31.15;;;9.80;99.90;;;;;;4152983;28;21585;-66
2024/03/05 02:47:52;;;;;;;57.05;30.52;;;9.90;99.90;;;;;;4156542;28;20098;-66
2024/03/05 02:49:53;;;;;;;60.47;32.03;;;9.90;99.90;;;;;;4157102;28;20490;-66
2024/03/05 02:51:54;;;;;;;58.60;31.25;;;9.90;99.90;;;;;;4154159;28;20109;-66
2024/03/05 02:53:55;;;;;;;56.78;30.98;;;9.90;99.90;;;;;;4158492;28;20092;-66
2024/03/05 02:55:55;;;;;;;62.45;30.73;;;9.90;99.90;;;;;;4158281;28;20041;-66
2024/03/05 02:57:56;;;;;;;63.42;32.63;;;9.90;99.90;;;;;;4157459;28;20037;-66
2024/03/05 02:59:57;;;;;;;64.05;33.47;;;9.90;99.90;;;;;;4157966;28;20094;-66
2024/03/05 03:01:57;;;;;;;62.38;32.53;;;9.90;99.90;;;;;;4155005;28;20390;-66
2024/03/05 03:03:58;;;;;;;60.35;32.05;;;9.90;99.90;;;;;;4154702;28;20038;-66
2024/03/05 03:05:58;;;;;;;59.35;31.98;;;9.90;99.90;;;;;;4151865;28;20045;-66
2024/03/05 03:07:59;;;;;;;55.80;30.77;;;9.80;99.90;;;;;;4152569;28;20053;-67
2024/03/05 03:09:59;;;;;;;56.25;31.60;;;9.90;99.90;;;;;;4154228;28;20506;-66
2024/03/05 03:12:00;;;;;;;61.72;31.88;;;9.90;99.90;;;;;;4153253;28;20037;-66
2024/03/05 03:14:03;;;;;;;61.53;31.77;;;9.90;99.90;;;;;;4150944;28;20044;-66
2024/03/05 03:16:04;;;;;;;60.67;31.40;;;9.80;99.90;;;;;;4151250;28;20034;-66
2024/03/05 03:18:05;;;;;;;60.35;31.45;;;9.90;99.90;;;;;;4155989;28;20531;-66
2024/03/05 03:20:09;;;;;;;64.68;32.10;;;9.90;99.90;;;;;;4152166;28;20409;-66
2024/03/05 03:22:10;;;;;;;56.83;30.75;;;9.90;99.90;;;;;;4152891;28;20037;-66
2024/03/05 03:24:11;;;;;;;60.00;30.75;;;9.90;99.90;;;;;;4154207;28;20500;-66
2024/03/05 03:26:12;;;;;;;61.53;32.50;;;9.90;99.90;;;;;;4152585;28;20033;-66
2024/03/05 03:28:13;;;;;;;61.25;32.03;;;9.90;99.90;;;;;;4153602;28;20439;-66
2024/03/05 03:30:20;;;;;;;64.85;31.50;;;9.90;99.90;;;;;;4155238;28;20029;-66
2024/03/05 03:32:20;;;;;;;63.47;30.80;;;9.80;99.90;;;;;;4157508;28;20406;-60
2024/03/05 03:34:21;;;;;;;59.85;31.05;;;9.80;99.90;;;;;;4157937;28;20045;-60
2024/03/05 03:36:23;;;;;;;57.03;30.23;;;9.80;99.90;;;;;;4154982;28;20037;-60
2024/03/05 03:38:24;;;;;;;62.75;31.45;;;9.80;99.90;;;;;;4155773;28;20044;-60
2024/03/05 03:40:24;;;;;;;57.17;30.38;;;9.80;99.90;;;;;;4153675;28;20037;-60
2024/03/05 03:42:25;;;;;;;55.97;29.83;;;9.80;99.90;;;;;;4156607;28;20073;-60
2024/03/05 03:44:26;;;;;;;59.47;30.30;;;9.90;99.90;;;;;;4154607;28;20087;-60
2024/03/05 03:46:27;;;;;;;53.57;29.50;;;9.90;99.90;;;;;;4146908;28;20044;-60
2024/03/05 03:48:28;;;;;;;53.90;28.60;;;9.90;99.90;;;;;;4156466;28;20279;-60
2024/03/05 03:50:28;;;;;;;51.13;27.35;;;9.90;99.90;;;;;;4154795;28;20041;-60
2024/03/05 03:52:29;;;;;;;48.88;27.60;;;9.90;99.90;;;;;;4152151;28;20044;-60
2024/03/05 03:54:30;;;;;;;53.15;28.10;;;9.90;99.90;;;;;;4154956;28;20477;-60
2024/03/05 03:56:30;;;;;;;54.13;28.00;;;9.90;99.90;;;;;;4152371;28;20040;-60
2024/03/05 03:58:31;;;;;;;55.60;29.10;;;9.90;99.90;;;;;;4155908;28;20040;-60
2024/03/05 04:00:32;;;;;;;55.75;27.95;;;9.90;99.90;;;;;;4155708;28;20045;-60
2024/03/05 04:02:36;;;;;;;59.50;30.13;;;9.90;99.90;;;;;;4143676;28;20042;-60
2024/03/05 04:04:36;;;;;;;47.45;26.58;;;9.90;99.90;;;;;;4148786;28;20681;-60
2024/03/05 04:06:39;;;;;;;45.72;25.67;;;9.90;99.90;;;;;;4153966;28;20133;-60
2024/03/05 04:08:39;;;;;;;52.53;28.02;;;10.00;99.90;;;;;;4153552;28;20029;-60
2024/03/05 04:10:40;;;;;;;55.08;28.67;;;9.90;99.90;;;;;;4153618;28;20521;-60
2024/03/05 04:12:41;;;;;;;53.72;29.27;;;9.90;99.90;;;;;;4151628;28;20148;-60
2024/03/05 04:14:42;;;;;;;54.47;29.33;;;9.80;99.90;;;;;;4151439;28;20034;-60
2024/03/05 04:16:42;;;;;;;57.92;30.40;;;9.80;99.90;;;;;;4153625;28;20095;-61
2024/03/05 04:18:45;;;;;;;58.05;29.25;;;9.80;99.90;;;;;;4156129;28;20034;-60
2024/03/05 04:20:45;;;;;;;54.63;27.75;;;9.70;99.90;;;;;;4154836;28;20105;-60
2024/03/05 04:22:46;;;;;;;50.00;27.20;;;9.70;99.90;;;;;;4152933;28;20045;-60
2024/03/05 04:24:52;;;;;;;52.67;27.70;;;9.70;99.90;;;;;;4157793;28;20033;-60
2024/03/05 04:26:53;;;;;;;56.90;29.20;;;9.60;99.90;;;;;;4146989;28;20051;-60
2024/03/05 04:29:00;;;;;;;53.95;28.67;;;9.70;99.90;;;;;;4157613;28;20120;-60
2024/03/05 04:31:07;;;;;;;59.33;30.23;;;9.70;99.90;;;;;;4155976;28;20042;-60
2024/03/05 04:33:15;;;;;;;52.58;28.77;;;9.70;99.90;;;;;;4156820;28;20120;-60
2024/03/05 04:35:16;;;;;;;52.53;28.08;;;9.70;99.90;;;;;;4157564;28;20026;-60
2024/03/05 04:37:17;;;;;;;56.92;28.55;;;9.70;99.90;;;;;;4154148;28;20593;-60
2024/03/05 04:39:18;;;;;;;55.40;28.60;;;9.70;99.90;;;;;;4157815;28;20103;-60
2024/03/05 04:41:19;;;;;;;57.83;29.30;;;9.80;99.90;;;;;;4157207;28;20550;-72
2024/03/05 04:43:19;;;;;;;60.30;30.13;;;9.80;99.90;;;;;;4159677;28;20044;-69
2024/03/05 04:45:21;;;;;;;57.75;29.42;;;9.80;99.90;;;;;;4152592;28;20025;-69
2024/03/05 04:47:24;;;;;;;58.83;30.38;;;9.80;99.90;;;;;;4151809;28;20033;-69
2024/03/05 04:49:26;;;;;;;56.97;28.60;;;9.80;99.90;;;;;;4158977;28;20037;-69
2024/03/05 04:51:27;;;;;;;54.05;28.73;;;9.80;99.90;;;;;;4155848;28;20088;-69
2024/03/05 04:53:28;;;;;;;60.22;29.63;;;9.80;99.90;;;;;;4160451;28;20029;-69
2024/03/05 04:55:28;;;;;;;58.70;29.88;;;9.80;99.90;;;;;;4158169;28;20037;-69
2024/03/05 04:57:29;;;;;;;56.45;29.45;;;9.80;99.90;;;;;;4156589;28;20057;-69
2024/03/05 04:59:30;;;;;;;63.13;31.00;;;9.80;99.90;;;;;;4159843;28;20116;-69
2024/03/05 05:01:30;;;;;;;59.83;30.08;;;9.80;99.90;;;;;;4158094;28;20046;-69
2024/03/05 05:03:31;;;;;;;63.50;31.73;;;9.80;99.90;;;;;;4158984;28;20060;-69
2024/03/05 05:05:32;;;;;;;63.97;32.75;;;9.80;99.90;;;;;;4153055;28;20105;-69
2024/03/05 05:07:33;;;;;;;63.95;32.85;;;9.70;99.90;;;;;;4159180;28;20046;-69
2024/03/05 05:09:36;;;;;;;59.35;31.92;;;9.70;99.90;;;;;;4156863;28;20395;-67
2024/03/05 05:11:37;;;;;;;62.83;32.13;;;9.70;99.90;;;;;;4153355;28;20061;-69
2024/03/05 05:13:37;;;;;;;57.45;30.65;;;9.70;99.90;;;;;;4156055;28;20416;-69
2024/03/05 05:15:38;;;;;;;61.95;31.65;;;9.70;99.90;;;;;;4153925;28;20048;-69
2024/03/05 05:17:39;;;;;;;55.33;30.20;;;9.60;99.90;;;;;;4153955;28;20049;-67
2024/03/05 05:19:40;;;;;;;53.67;27.98;;;9.60;99.90;;;;;;4157827;28;20116;-68
2024/03/05 05:21:44;;;;;;;55.13;29.38;;;9.60;99.90;;;;;;4154001;28;20453;-68
2024/03/05 05:23:45;;;;;;;63.33;33.10;;;9.60;99.90;;;;;;4158245;28;20494;-69
2024/03/05 05:25:45;;;;;;;56.97;30.13;;;9.60;99.90;;;;;;4157515;28;20037;-69
2024/03/05 05:27:49;;;;;;;63.42;32.05;;;9.60;99.90;;;;;;4157813;28;20046;-69
2024/03/05 05:29:50;;;;;;;60.15;31.40;;;9.60;99.90;;;;;;4157768;28;20053;-69
2024/03/05 05:31:51;;;;;;;61.08;30.85;;;9.60;99.90;;;;;;4154049;28;20045;-69
2024/03/05 05:33:51;;;;;;;59.35;30.25;;;9.60;99.90;;;;;;4158465;28;20057;-69
2024/03/05 05:35:52;;;;;;;58.53;30.40;;;9.60;99.90;;;;;;4153258;28;20030;-69
2024/03/05 05:37:53;;;;;;;63.50;32.22;;;9.60;99.90;;;;;;4157790;28;20114;-69
2024/03/05 05:39:53;;;;;;;59.08;30.58;;;9.60;99.90;;;;;;4157146;28;20096;-69
2024/03/05 05:41:54;;;;;;;58.10;29.90;;;9.60;99.90;;;;;;4156481;28;20059;-69
2024/03/05 05:43:55;;;;;;;61.33;31.85;;;9.60;99.90;;;;;;4154087;28;20153;-69
2024/03/05 05:45:56;;;;;;;66.63;33.25;;;9.60;99.90;;;;;;4156946;28;20037;-69
2024/03/05 05:47:59;;;;;;;56.28;30.13;;;9.50;99.90;;;;;;4152472;28;20576;-69
2024/03/05 05:50:00;;;;;;;61.83;32.22;;;9.50;99.90;;;;;;4158089;28;20052;-69
2024/03/05 05:52:00;;;;;;;65.65;31.92;;;9.50;99.90;;;;;;4154137;28;20133;-66
2024/03/05 05:54:01;;;;;;;57.58;29.80;;;9.50;99.90;;;;;;4156254;28;20038;-67
2024/03/05 05:56:02;;;;;;;58.72;31.05;;;9.50;99.90;;;;;;4153608;28;20069;-67
2024/03/05 05:58:04;;;;;;;60.42;31.92;;;9.50;99.90;;;;;;4152825;28;20030;-67
2024/03/05 06:00:07;;;;;;;60.97;32.07;;;9.50;99.90;;;;;;4155563;28;20109;-67
2024/03/05 06:02:11;;;;;;;61.08;32.83;;;9.40;99.90;;;;;;4150965;28;20637;-67
2024/03/05 06:04:12;;;;;;;56.50;30.10;;;9.40;99.90;;;;;;4158641;28;20038;-67
2024/03/05 06:06:14;;;;;;;61.08;32.08;;;9.40;99.90;;;;;;4149880;28;20041;-65
2024/03/05 06:08:15;;;;;;;61.30;31.40;;;9.50;99.90;;;;;;4158871;28;20045;-65
2024/03/05 06:10:19;;;;;;;60.90;32.20;;;9.50;99.90;;;;;;4148619;28;20441;-64
2024/03/05 06:12:22;;;;;;;58.10;30.83;;;9.50;99.90;;;;;;4154771;28;20699;-65
2024/03/05 06:14:23;;;;;;;63.97;32.45;;;9.50;99.90;;;;;;4153351;28;20521;-65
2024/03/05 06:16:23;;;;;;;61.47;30.50;;;9.50;99.90;;;;;;4155974;28;20041;-65
2024/03/05 06:18:24;;;;;;;58.97;30.40;;;9.50;99.90;;;;;;4154423;28;20072;-65
2024/03/05 06:20:26;;;;;;;62.92;32.13;;;9.50;99.90;;;;;;4153078;28;20048;-65
2024/03/05 06:22:28;;;;;;;66.75;33.45;;;9.50;99.90;;;;;;4154153;28;20495;-65
2024/03/05 06:24:29;;;;;;;63.33;31.73;;;9.40;99.90;;;;;;4154582;28;20069;-65
2024/03/05 06:26:36;;;;;;;61.80;33.00;;;9.50;99.90;;;;;;4143493;28;20448;-65
2024/03/05 06:28:37;;;;;;;66.75;33.10;;;9.50;99.90;;;;;;4146971;28;20087;-65
2024/03/05 06:30:43;;;;;;;70.55;34.35;;;9.50;99.90;;;;;;4134202;28;20470;-64
2024/03/05 06:32:48;;;;;;;65.72;33.95;;;9.50;99.90;;;;;;4151487;28;20495;-65
2024/03/05 06:34:48;;;;;;;62.95;31.25;;;9.50;99.90;;;;;;4151432;28;20685;-64
2024/03/05 06:36:53;;;;;;;62.13;31.45;;;9.50;99.90;;;;;;4150791;28;20436;-64
2024/03/05 06:38:58;;;;;;;57.05;30.33;;;9.50;99.90;;;;;;4154518;28;20036;-65
2024/03/05 06:40:59;;;;;;;68.90;34.70;;;9.50;99.90;;;;;;4148184;28;20513;-65
2024/03/05 06:43:12;;;;;;;67.47;33.78;;;9.50;99.90;;;;;;4155207;28;20041;-65
2024/03/05 06:45:15;;;;;;;59.15;31.08;;;9.50;99.90;;;;;;4151502;28;20053;-65
2024/03/05 06:47:16;;;;;;;62.42;31.30;;;9.50;99.90;;;;;;4153381;28;21203;-65
2024/03/05 06:49:27;;;;;;;57.07;30.43;;;9.50;99.90;;;;;;4148594;28;20041;-65
2024/03/05 06:51:31;;;;;;;55.75;29.65;;;9.50;99.90;;;;;;4144911;28;20305;-65
2024/03/05 06:58:12;;;;;;;58.97;29.90;;;9.50;99.90;;;;;;4146433;28;20052;-65
2024/03/05 07:00:17;;;;;;;59.40;31.63;;;9.50;99.90;;;;;;4149811;28;20041;-65
2024/03/05 07:02:18;;;;;;;63.92;32.65;;;9.50;99.90;;;;;;4151165;28;20037;-66
2024/03/05 07:04:19;;;;;;;58.50;29.67;;;9.50;99.90;;;;;;4145351;28;20053;-63
2024/03/05 07:06:21;;;;;;;59.88;29.80;;;9.50;99.90;;;;;;4152657;28;20513;-63
2024/03/05 07:08:22;;;;;;;64.07;31.88;;;9.50;99.90;;;;;;4153103;28;20378;-63
2024/03/05 07:10:23;;;;;;;64.82;32.42;;;9.50;99.90;;;;;;4148479;28;20561;-63
2024/03/05 07:12:24;;;;;;;61.03;31.55;;;9.50;99.90;;;;;;4151972;28;20060;-63
2024/03/05 07:14:25;;;;;;;64.65;32.25;;;9.50;99.90;;;;;;4150066;28;20077;-63
2024/03/05 07:16:25;;;;;;;53.70;29.48;;;9.50;99.90;;;;;;4151711;28;20034;-63
2024/03/05 07:18:26;;;;;;;60.30;30.08;;;9.50;99.90;;;;;;4150327;28;20037;-63
2024/03/05 07:20:27;;;;;;;51.60;28.17;;;9.50;99.90;;;;;;4151289;28;20112;-63
2024/03/05 07:22:28;;;;;;;58.33;30.08;;;9.60;99.90;;;;;;4153742;28;20482;-63
2024/03/05 07:24:29;;;;;;;58.50;30.55;;;9.60;99.90;;;;;;4153526;28;20037;-63
2024/03/05 07:26:31;;;;;;;61.35;32.85;;;9.60;99.90;;;;;;4149539;28;20037;-63
2024/03/05 07:28:32;;;;;;;58.83;32.03;;;9.60;99.90;;;;;;4151439;28;20470;-63
2024/03/05 07:30:34;;;;;;;55.92;30.55;;;9.60;99.90;;;;;;4151236;28;20038;-63
2024/03/05 07:32:35;;;;;;;51.75;28.90;;;9.60;99.90;;;;;;4151260;28;20088;-63
2024/03/05 07:34:36;;;;;;;50.50;27.23;;;9.60;99.90;;;;;;4149661;28;20044;-63
2024/03/05 07:36:39;;;;;;;55.58;31.17;;;9.70;99.90;;;;;;4153478;28;20041;-63
2024/03/05 07:38:40;;;;;;;59.80;31.75;;;9.70;99.90;;;;;;4151886;28;20107;-63
2024/03/05 07:40:47;;;;;;;60.75;31.85;;;9.70;99.90;;;;;;4150276;28;20084;-63
2024/03/05 07:42:56;;;;;;;58.35;31.00;;;9.70;99.90;;;;;;4153613;28;20068;-63
2024/03/05 07:44:56;;;;;;;57.38;30.23;;;9.70;99.90;;;;;;4152409;28;20503;-63
2024/03/05 07:46:57;;;;;;;52.70;28.88;;;9.70;99.90;;;;;;4143180;28;20096;-63
2024/03/05 07:48:58;;;;;;;57.17;29.35;;;9.70;99.90;;;;;;4151820;28;20061;-63
2024/03/05 07:50:59;;;;;;;63.35;31.55;;;9.80;99.90;;;;;;4150887;28;20129;-63
2024/03/05 07:52:59;;;;;;;60.95;31.38;;;9.70;99.90;;;;;;4153460;28;20091;-64
2024/03/05 07:55:00;;;;;;;59.15;31.83;;;9.70;99.90;;;;;;4152823;28;20508;-63
2024/03/05 07:57:01;;;;;;;57.90;30.80;;;9.70;99.90;;;;;;4150605;28;20116;-63
2024/03/05 07:59:02;;;;;;;58.13;30.73;;;9.70;99.90;;;;;;4149853;28;20049;-63
2024/03/05 08:01:03;;;;;;;57.70;30.70;;;9.70;99.90;;;;;;4150958;28;20041;-63
2024/03/05 08:03:04;;;;;;;58.90;31.55;;;9.70;99.90;;;;;;4153874;28;20048;-63
2024/03/05 08:05:05;;;;;;;53.08;29.13;;;9.70;99.90;;;;;;4147270;28;20394;-64
2024/03/05 08:07:07;;;;;;;57.97;30.52;;;9.70;99.90;;;;;;4152903;28;20058;-63
2024/03/05 08:09:07;;;;;;;52.85;28.40;;;9.80;99.90;;;;;;4151653;28;20045;-63
2024/03/05 08:11:08;;;;;;;53.35;28.55;;;9.70;99.90;;;;;;4151687;28;20095;-59
2024/03/05 08:13:09;;;;;;;50.83;28.30;;;9.80;99.90;;;;;;4153123;28;20555;-57
2024/03/05 08:15:15;;;;;;;56.40;30.42;;;9.80;99.90;;;;;;4151183;28;20118;-58
2024/03/05 08:17:16;;;;;;;53.17;28.70;;;9.90;99.90;;;;;;4151426;28;20034;-61
2024/03/05 08:19:17;;;;;;;52.88;28.75;;;9.80;99.90;;;;;;4152879;28;20160;-58
2024/03/05 08:21:17;;;;;;;52.30;28.65;;;9.90;99.90;;;;;;4151128;28;20037;-58
2024/03/05 08:23:18;;;;;;;56.42;30.17;;;9.90;99.90;;;;;;4152964;28;20072;-58
2024/03/05 08:25:19;;;;;;;50.63;29.00;;;9.90;99.90;;;;;;4148993;28;20038;-58
2024/03/05 08:27:20;;;;;;;56.30;29.77;;;9.90;99.90;;;;;;4148052;28;20060;-57
2024/03/05 08:29:21;;;;;;;58.92;30.30;;;9.90;99.90;;;;;;4151857;28;20057;-58
2024/03/05 08:31:21;;;;;;;55.60;29.77;;;9.90;99.90;;;;;;4147563;28;20033;-56
2024/03/05 08:33:23;;;;;;;59.75;30.73;;;9.90;99.90;;;;;;4152836;28;20544;-57
2024/03/05 08:35:25;;;;;;;54.78;29.25;;;9.90;99.90;;;;;;4146950;28;20050;-57
2024/03/05 08:37:26;;;;;;;53.28;29.15;;;9.90;99.90;;;;;;4150189;28;20444;-57
2024/03/05 08:39:26;;;;;;;49.45;27.48;;;10.00;99.90;;;;;;4154052;28;20125;-57
2024/03/05 08:41:28;;;;;;;51.67;27.95;;;10.00;99.90;;;;;;4154150;28;20075;-57
2024/03/05 08:43:30;;;;;;;51.45;27.92;;;10.00;99.90;;;;;;4131446;28;20470;-58
2024/03/05 08:45:31;;;;;;;51.40;28.33;;;10.00;99.90;;;;;;4154224;28;20124;-57
2024/03/05 08:47:33;;;;;;;53.42;27.45;;;10.00;99.90;;;;;;4151935;28;20077;-57
2024/03/05 08:49:34;;;;;;;53.50;28.63;;;10.10;99.90;;;;;;4153352;28;20037;-58
2024/03/05 08:51:37;;;;;;;50.97;27.58;;;10.10;99.90;;;;;;4154059;28;20038;-57
2024/03/05 08:53:38;;;;;;;51.88;27.73;;;10.10;99.90;;;;;;4156670;28;20500;-57
2024/03/05 08:55:39;;;;;;;53.88;28.23;;;10.10;99.90;;;;;;4154088;28;20033;-57
2024/03/05 08:57:40;;;;;;;54.03;29.20;;;10.10;99.90;;;;;;4153043;28;20040;-57
2024/03/05 08:59:40;;;;;;;53.03;29.27;;;10.10;99.90;;;;;;4156302;28;20199;-58
2024/03/05 09:01:41;;;;;;;51.08;29.02;;;10.10;99.90;;;;;;4156832;28;20045;-57
2024/03/05 09:03:42;;;;;;;52.33;29.00;;;10.10;99.90;;;;;;4157699;28;20389;-58
2024/03/05 09:05:42;;;;;;;52.58;28.38;;;10.10;99.90;;;;;;4153524;28;20034;-59
2024/03/05 09:07:43;;;;;;;53.88;29.13;;;10.10;99.90;;;;;;4157377;28;20485;-59
2024/03/05 09:09:44;;;;;;;49.80;28.52;;;10.10;99.90;;;;;;4158437;28;20070;-58
2024/03/05 09:11:46;;;;;;;52.53;28.55;;;10.10;99.90;;;;;;4152603;28;20034;-58
2024/03/05 09:13:48;;;;;;;52.03;28.58;;;10.20;99.90;;;;;;4153779;28;20127;-57
2024/03/05 09:15:48;;;;;;;56.08;29.20;;;10.10;99.90;;;;;;4158150;28;20037;-57
2024/03/05 09:17:49;;;;;;;57.92;29.83;;;10.10;99.90;;;;;;4159322;28;20096;-58
2024/03/05 09:19:50;;;;;;;52.67;29.23;;;10.10;99.90;;;;;;4157944;28;20068;-58
2024/03/05 09:21:50;;;;;;;51.80;28.38;;;10.10;99.90;;;;;;4159036;28;20046;-64
2024/03/05 09:23:51;;;;;;;46.67;26.67;;;10.10;99.90;;;;;;4157376;28;20482;-58
2024/03/05 09:25:52;;;;;;;43.70;25.75;;;10.20;99.90;;;;;;4158946;28;20030;-59
2024/03/05 09:27:52;;;;;;;46.53;26.42;;;10.20;99.90;;;;;;4148620;28;20042;-58
2024/03/05 09:29:55;;;;;;;56.38;30.00;;;10.20;99.90;;;;;;4153772;28;20033;-58
2024/03/05 09:31:55;;;;;;;59.10;31.50;;;10.10;99.90;;;;;;4155004;28;20033;-59
2024/03/05 09:33:57;;;;;;;49.88;28.77;;;10.10;99.90;;;;;;4158426;28;20088;-58
2024/03/05 09:35:58;;;;;;;48.80;27.15;;;10.10;99.90;;;;;;4157946;28;20393;-58
2024/03/05 09:37:59;;;;;;;44.97;26.83;;;10.10;99.90;;;;;;4158804;28;20044;-58
2024/03/05 09:39:59;;;;;;;54.03;30.27;;;10.20;99.90;;;;;;4159717;28;20120;-58
2024/03/05 09:42:00;;;;;;;52.20;29.48;;;10.10;99.90;;;;;;4157638;28;20031;-59
2024/03/05 09:44:03;;;;;;;49.67;29.38;;;10.20;99.90;;;;;;4159856;28;20128;-58
2024/03/05 09:46:06;;;;;;;52.35;29.05;;;10.10;99.90;;;;;;4159573;28;20041;-58
2024/03/05 09:48:10;;;;;;;48.47;27.92;;;10.20;99.90;;;;;;4160373;28;20518;-58
2024/03/05 09:50:12;;;;;;;54.92;29.65;;;10.20;99.90;;;;;;4158623;28;20378;-59
2024/03/05 09:52:13;;;;;;;47.20;26.73;;;10.20;99.90;;;;;;4155126;28;20029;-58
2024/03/05 09:54:14;;;;;;;46.45;26.45;;;10.20;99.90;;;;;;4145779;28;20037;-59
2024/03/05 09:56:16;;;;;;;46.97;26.88;;;10.20;99.90;;;;;;4145103;28;20038;-59
2024/03/05 09:58:32;;;;;;;44.40;26.17;;;10.20;99.90;;;;;;4150459;28;20099;-58
2024/03/05 10:00:37;;;;;;;48.50;26.70;;;10.20;99.90;;;;;;4156786;28;20112;-58
2024/03/05 10:02:38;;;;;;;47.97;26.33;;;10.20;99.90;;;;;;4159504;28;20108;-58
2024/03/05 10:04:41;;;;;;;44.58;26.08;;;10.20;99.90;;;;;;4159264;28;20246;-58
2024/03/05 10:06:45;;;;;;;45.72;25.73;;;10.30;99.90;;;;;;4150173;28;20039;-58
2024/03/05 10:08:46;;;;;;;44.05;24.38;;;10.30;99.90;;;;;;4156604;28;20061;-58
2024/03/05 10:10:47;;;;;;;44.13;25.13;;;10.30;99.90;;;;;;4156438;28;20033;-58
2024/03/05 10:12:50;;;;;;;38.75;24.55;;;10.30;99.90;;;;;;4158484;28;20068;-58
2024/03/05 10:14:50;;;;;;;43.20;25.35;;;10.40;99.90;;;;;;4157781;28;20104;-58
2024/03/05 10:17:00;;;;;;;44.35;25.63;;;10.30;99.90;;;;;;4158175;28;20045;-58
2024/03/05 10:19:12;;;;;;;41.40;23.77;;;10.30;99.90;;;;;;4158333;28;20045;-59
2024/03/05 10:21:22;;;;;;;39.33;23.45;;;10.40;99.90;;;;;;4153989;28;20387;-58
2024/03/05 10:23:23;;;;;;;37.78;21.60;;;10.40;99.90;;;;;;4156085;28;20387;-58
2024/03/05 10:25:25;;;;;;;42.47;22.83;;;10.40;99.90;;;;;;4157359;28;20128;-58
2024/03/05 10:27:27;;;;;;;37.80;22.38;;;10.40;99.90;;;;;;4158800;28;20401;-60